createdAt,value
2018-11-12T00:01:05.840Z,100.00
2018-11-12T00:03:35.078Z,100.00
2018-11-12T00:06:04.294Z,100.00
2018-11-12T00:08:33.506Z,100.00
2018-11-12T00:11:02.661Z,100.00
2018-11-12T00:13:32.034Z,100.00
2018-11-12T00:16:01.430Z,100.00
2018-11-12T00:18:30.893Z,100.00
2018-11-12T00:21:00.128Z,100.00
2018-11-12T00:23:29.245Z,100.00
2018-11-12T00:25:58.363Z,100.00
2018-11-12T00:28:27.538Z,100.00
2018-11-12T00:30:56.623Z,100.00
2018-11-12T00:33:25.876Z,100.00
2018-11-12T00:35:55.137Z,100.00
2018-11-12T00:38:24.285Z,100.00
2018-11-12T00:40:53.333Z,100.00
2018-11-12T00:43:22.607Z,100.00
2018-11-12T00:45:51.672Z,100.00
2018-11-12T00:48:20.918Z,100.00
2018-11-12T00:50:50.516Z,100.00
2018-11-12T00:53:19.885Z,100.00
2018-11-12T00:55:49.131Z,100.00
2018-11-12T00:58:18.302Z,100.00
2018-11-12T01:00:47.418Z,100.00
2018-11-12T01:03:16.568Z,100.00
2018-11-12T01:05:45.873Z,100.00
2018-11-12T01:08:14.961Z,100.00
2018-11-12T01:10:44.090Z,100.00
2018-11-12T01:13:13.463Z,100.00
2018-11-12T01:15:42.642Z,100.00
2018-11-12T01:18:11.877Z,100.00
2018-11-12T01:20:41.185Z,100.00
2018-11-12T01:23:10.556Z,100.00
2018-11-12T01:25:39.837Z,100.00
2018-11-12T01:28:09.002Z,99.89
2018-11-12T01:30:38.237Z,97.59
2018-11-12T01:33:07.425Z,95.88
2018-11-12T01:35:36.702Z,95.63
2018-11-12T01:38:05.950Z,97.03
2018-11-12T01:40:35.054Z,97.46
2018-11-12T01:43:04.365Z,99.26
2018-11-12T01:45:33.606Z,99.74
2018-11-12T01:48:02.861Z,100.00
2018-11-12T01:50:32.098Z,100.00
2018-11-12T01:53:01.319Z,100.00
2018-11-12T01:55:30.466Z,100.00
2018-11-12T01:57:59.764Z,100.00
2018-11-12T02:00:28.922Z,100.00
2018-11-12T02:02:58.144Z,100.00
2018-11-12T02:05:27.272Z,100.00
2018-11-12T02:07:56.405Z,100.00
2018-11-12T02:10:25.505Z,100.00
2018-11-12T02:12:54.663Z,100.00
2018-11-12T02:15:24.019Z,100.00
2018-11-12T02:17:53.089Z,100.00
2018-11-12T02:20:22.703Z,100.00
2018-11-12T02:22:52.092Z,100.00
2018-11-12T02:25:21.718Z,100.00
2018-11-12T02:27:51.029Z,100.00
2018-11-12T02:30:25.276Z,100.00
2018-11-12T02:32:54.703Z,100.00
2018-11-12T02:35:24.082Z,99.70
2018-11-12T02:37:53.253Z,100.00
2018-11-12T02:40:22.473Z,100.00
2018-11-12T02:42:51.788Z,100.00
2018-11-12T02:45:21.011Z,100.00
2018-11-12T02:47:50.230Z,100.00
2018-11-12T02:50:19.435Z,100.00
2018-11-12T02:52:48.856Z,98.79
2018-11-12T02:55:18.013Z,99.98
2018-11-12T02:57:47.700Z,99.96
2018-11-12T03:00:19.279Z,100.00
2018-11-12T03:02:48.475Z,100.00
2018-11-12T03:05:17.737Z,100.00
2018-11-12T03:07:47.243Z,100.00
2018-11-12T03:10:19.752Z,100.00
2018-11-12T03:12:49.099Z,100.00
2018-11-12T03:15:19.117Z,100.00
2018-11-12T03:17:49.170Z,100.00
2018-11-12T03:20:19.532Z,100.00
2018-11-12T03:22:49.017Z,100.00
2018-11-12T03:25:19.401Z,100.00
2018-11-12T03:27:49.485Z,100.00
2018-11-12T03:30:20.662Z,100.00
2018-11-12T03:32:50.774Z,100.00
2018-11-12T03:35:20.140Z,100.00
2018-11-12T03:37:50.052Z,100.00
2018-11-12T03:40:21.359Z,100.00
2018-11-12T03:42:51.280Z,100.00
2018-11-12T03:45:22.666Z,100.00
2018-11-12T03:47:51.937Z,100.00
2018-11-12T03:50:22.839Z,100.00
2018-11-12T03:52:52.358Z,100.00
2018-11-12T03:55:22.429Z,100.00
2018-11-12T03:57:51.864Z,100.00
2018-11-12T04:00:23.493Z,100.00
2018-11-12T04:02:52.993Z,100.00
2018-11-12T04:05:22.193Z,100.00
2018-11-12T04:07:51.634Z,100.00
2018-11-12T04:10:21.604Z,100.00
2018-11-12T04:12:51.330Z,100.00
2018-11-12T04:15:23.129Z,100.00
2018-11-12T04:17:52.561Z,100.00
2018-11-12T04:20:22.999Z,100.00
2018-11-12T04:23:03.691Z,100.00
2018-11-12T04:25:34.669Z,100.00
2018-11-12T04:28:04.285Z,100.00
2018-11-12T04:30:33.585Z,100.00
2018-11-12T04:33:02.934Z,100.00
2018-11-12T04:35:32.509Z,100.00
2018-11-12T04:38:01.869Z,100.00
2018-11-12T04:40:31.297Z,100.00
2018-11-12T04:43:00.689Z,100.00
2018-11-12T04:45:30.124Z,100.00
2018-11-12T04:47:59.589Z,100.00
2018-11-12T04:50:29.533Z,100.00
2018-11-12T04:52:59.071Z,100.00
2018-11-12T04:55:28.428Z,100.00
2018-11-12T04:57:58.123Z,100.00
2018-11-12T05:00:28.630Z,100.00
2018-11-12T05:02:58.209Z,100.00
2018-11-12T05:05:28.512Z,100.00
2018-11-12T05:07:58.334Z,100.00
2018-11-12T05:10:28.200Z,100.00
2018-11-12T05:12:57.613Z,100.00
2018-11-12T05:15:27.421Z,100.00
2018-11-12T05:17:56.744Z,100.00
2018-11-12T05:20:28.505Z,100.00
2018-11-12T05:22:57.874Z,100.00
2018-11-12T05:25:27.287Z,100.00
2018-11-12T05:27:57.029Z,100.00
2018-11-12T05:30:28.472Z,100.00
2018-11-12T05:32:58.827Z,100.00
2018-11-12T05:35:29.409Z,100.00
2018-11-12T05:37:58.804Z,100.00
2018-11-12T05:40:29.370Z,100.00
2018-11-12T05:42:59.077Z,100.00
2018-11-12T05:45:29.092Z,100.00
2018-11-12T05:47:58.244Z,100.00
2018-11-12T05:50:29.660Z,100.00
2018-11-12T05:53:03.593Z,100.00
2018-11-12T05:55:33.485Z,100.00
2018-11-12T05:58:02.908Z,100.00
2018-11-12T06:00:33.342Z,100.00
2018-11-12T06:03:02.630Z,100.00
2018-11-12T06:05:32.323Z,100.00
2018-11-12T06:08:01.640Z,100.00
2018-11-12T06:10:31.718Z,100.00
2018-11-12T06:13:01.135Z,100.00
2018-11-12T06:15:30.262Z,100.00
2018-11-12T06:17:59.358Z,100.00
2018-11-12T06:20:29.839Z,100.00
2018-11-12T06:22:59.027Z,100.00
2018-11-12T06:25:29.787Z,100.00
2018-11-12T06:27:59.014Z,100.00
2018-11-12T06:30:30.702Z,100.00
2018-11-12T06:32:59.843Z,100.00
2018-11-12T06:35:29.385Z,100.00
2018-11-12T06:37:58.973Z,100.00
2018-11-12T06:40:28.745Z,100.00
2018-11-12T06:42:57.977Z,100.00
2018-11-12T06:45:28.473Z,100.00
2018-11-12T06:48:01.688Z,100.00
2018-11-12T06:50:33.118Z,100.00
2018-11-12T06:53:04.630Z,100.00
2018-11-12T06:55:34.857Z,100.00
2018-11-12T06:58:06.313Z,100.00
2018-11-12T07:00:37.773Z,100.00
2018-11-12T07:03:10.204Z,100.00
2018-11-12T07:05:40.378Z,100.00
2018-11-12T07:08:11.332Z,100.00
2018-11-12T07:10:41.699Z,100.00
2018-11-12T07:13:13.848Z,100.00
2018-11-12T07:15:44.799Z,100.00
2018-11-12T07:18:16.933Z,100.00
2018-11-12T07:20:47.754Z,98.01
2018-11-12T07:23:18.009Z,95.46
2018-11-12T07:25:49.897Z,95.56
2018-11-12T07:28:23.506Z,98.86
2018-11-12T07:30:53.611Z,89.91
2018-11-12T07:33:24.245Z,88.54
2018-11-12T07:35:53.949Z,86.58
2018-11-12T07:38:23.427Z,92.34
2018-11-12T07:40:54.968Z,91.23
2018-11-12T07:43:24.220Z,90.68
2018-11-12T07:45:54.161Z,93.47
2018-11-12T07:48:24.292Z,94.97
2018-11-12T07:50:54.011Z,88.84
2018-11-12T07:53:26.050Z,87.92
2018-11-12T07:55:55.697Z,91.81
2018-11-12T07:58:25.999Z,91.29
2018-11-12T08:00:56.409Z,91.87
2018-11-12T08:03:26.544Z,79.85
2018-11-12T08:05:56.521Z,89.43
2018-11-12T08:08:27.810Z,89.45
2018-11-12T08:10:57.608Z,87.16
2018-11-12T08:13:27.776Z,87.68
2018-11-12T08:15:57.784Z,91.37
2018-11-12T08:18:28.639Z,85.10
2018-11-12T08:21:01.690Z,85.37
2018-11-12T08:23:31.581Z,79.60
2018-11-12T08:26:03.403Z,80.12
2018-11-12T08:28:34.114Z,80.78
2018-11-12T08:31:05.544Z,84.78
2018-11-12T08:33:35.524Z,88.46
2018-11-12T08:36:06.255Z,83.53
2018-11-12T08:38:37.805Z,81.40
2018-11-12T08:41:07.970Z,79.25
2018-11-12T08:43:37.938Z,86.01
2018-11-12T08:46:07.952Z,81.61
2018-11-12T08:48:39.539Z,79.42
2018-11-12T08:51:10.704Z,82.10
2018-11-12T08:53:43.456Z,83.60
2018-11-12T08:56:14.311Z,81.29
2018-11-12T08:58:44.077Z,81.37
2018-11-12T09:01:15.910Z,75.61
2018-11-12T09:03:47.085Z,74.26
2018-11-12T09:06:18.985Z,68.52
2018-11-12T09:08:48.526Z,65.49
2018-11-12T09:11:21.489Z,73.22
2018-11-12T09:13:54.877Z,64.46
2018-11-12T09:16:24.178Z,65.14
2018-11-12T09:18:54.638Z,69.86
2018-11-12T09:21:24.647Z,64.22
2018-11-12T09:23:56.985Z,64.76
2018-11-12T09:26:31.070Z,62.86
2018-11-12T09:29:04.328Z,65.50
2018-11-12T09:31:35.576Z,63.76
2018-11-12T09:34:08.002Z,64.99
2018-11-12T09:36:39.501Z,72.80
2018-11-12T09:39:11.483Z,73.17
2018-11-12T09:41:44.260Z,60.96
2018-11-12T09:44:14.033Z,60.35
2018-11-12T09:46:46.919Z,60.83
2018-11-12T09:49:30.247Z,57.72
2018-11-12T09:52:06.536Z,56.55
2018-11-12T09:54:47.176Z,77.87
2018-11-12T09:57:18.525Z,61.15
2018-11-12T09:59:56.164Z,57.39
2018-11-12T10:02:34.293Z,58.48
2018-11-12T10:05:06.198Z,58.60
2018-11-12T10:07:37.348Z,59.83
2018-11-12T10:10:11.718Z,63.25
2018-11-12T10:12:42.434Z,67.31
2018-11-12T10:15:18.826Z,61.64
2018-11-12T10:17:47.849Z,59.23
2018-11-12T10:20:15.838Z,59.40
2018-11-12T10:22:47.237Z,65.03
2018-11-12T10:25:18.047Z,65.48
2018-11-12T10:27:55.344Z,66.00
2018-11-12T10:30:24.700Z,60.51
2018-11-12T10:32:54.356Z,59.23
2018-11-12T10:35:23.633Z,59.52
2018-11-12T10:38:04.390Z,68.10
2018-11-12T10:40:39.943Z,69.35
2018-11-12T10:43:20.701Z,66.41
2018-11-12T10:45:57.902Z,59.15
2018-11-12T10:48:29.945Z,58.10
2018-11-12T10:51:05.169Z,53.88
2018-11-12T10:53:50.207Z,55.90
2018-11-12T10:56:20.446Z,58.92
2018-11-12T10:58:57.338Z,61.31
2018-11-12T11:01:37.928Z,60.26
2018-11-12T11:04:13.809Z,60.22
2018-11-12T11:06:45.638Z,61.42
2018-11-12T11:09:18.074Z,57.91
2018-11-12T11:11:51.423Z,56.94
2018-11-12T11:14:21.826Z,59.43
2018-11-12T11:16:55.765Z,59.87
2018-11-12T11:19:27.748Z,60.69
2018-11-12T11:22:01.351Z,58.98
2018-11-12T11:24:36.810Z,59.99
2018-11-12T11:27:09.236Z,55.98
2018-11-12T11:29:43.020Z,53.83
2018-11-12T11:32:18.482Z,52.37
2018-11-12T11:34:54.934Z,56.47
2018-11-12T11:37:27.679Z,55.26
2018-11-12T11:45:47.270Z,57.84
2018-11-12T11:48:19.335Z,60.63
2018-11-12T11:50:51.342Z,58.51
2018-11-12T11:53:22.504Z,57.21
2018-11-12T11:55:53.647Z,57.76
2018-11-12T11:58:25.713Z,56.62
2018-11-12T12:00:58.663Z,53.39
2018-11-12T12:03:29.040Z,54.02
2018-11-12T12:06:13.705Z,53.77
2018-11-12T12:08:51.183Z,56.54
2018-11-12T12:11:21.404Z,59.02
2018-11-12T12:14:01.152Z,61.49
2018-11-12T12:16:39.935Z,58.70
2018-11-12T12:19:10.870Z,55.82
2018-11-12T12:21:43.665Z,52.85
2018-11-12T12:24:14.731Z,53.29
2018-11-12T12:26:50.684Z,55.31
2018-11-12T12:29:22.031Z,53.66
2018-11-12T12:31:55.891Z,54.21
2018-11-12T12:34:28.849Z,51.63
2018-11-12T12:37:00.539Z,51.11
2018-11-12T12:39:31.219Z,55.46
2018-11-12T12:42:03.423Z,51.01
2018-11-12T12:44:35.098Z,48.89
2018-11-12T12:47:06.895Z,49.19
2018-11-12T12:49:38.910Z,50.00
2018-11-12T12:52:11.682Z,48.69
2018-11-12T12:54:44.578Z,48.14
2018-11-12T12:57:15.003Z,48.21
2018-11-12T12:59:47.149Z,52.78
2018-11-12T13:02:18.062Z,52.50
2018-11-12T13:04:53.686Z,56.31
2018-11-12T13:07:26.263Z,57.51
2018-11-12T13:12:39.034Z,55.21
2018-11-12T13:15:11.224Z,52.65
2018-11-12T13:17:41.553Z,54.18
2018-11-12T13:20:14.659Z,53.00
2018-11-12T13:22:44.684Z,53.09
2018-11-12T13:25:14.071Z,53.16
2018-11-12T13:27:44.658Z,54.71
2018-11-12T13:30:15.511Z,54.90
2018-11-12T13:32:46.657Z,53.60
2018-11-12T13:35:17.626Z,51.29
2018-11-12T13:37:46.836Z,50.95
2018-11-12T13:40:18.672Z,50.33
2018-11-12T13:42:50.384Z,51.50
2018-11-12T13:45:19.797Z,55.02
2018-11-12T13:47:49.505Z,55.84
2018-11-12T13:50:21.134Z,56.37
2018-11-12T13:52:51.450Z,58.49
2018-11-12T13:55:23.351Z,60.77
2018-11-12T13:57:52.979Z,65.48
2018-11-12T14:00:24.615Z,64.56
2018-11-12T14:02:55.163Z,62.74
2018-11-12T14:05:26.347Z,65.04
2018-11-12T14:07:56.205Z,64.41
2018-11-12T14:10:27.924Z,65.93
2018-11-12T14:12:58.954Z,65.25
2018-11-12T14:15:29.257Z,65.36
2018-11-12T14:17:59.511Z,65.74
2018-11-12T14:20:28.886Z,64.74
2018-11-12T14:22:59.650Z,67.25
2018-11-12T14:25:29.324Z,67.65
2018-11-12T14:27:59.424Z,66.25
2018-11-12T14:30:30.855Z,67.72
2018-11-12T14:33:00.169Z,68.15
2018-11-12T14:35:29.949Z,70.78
2018-11-12T14:37:59.225Z,72.35
2018-11-12T14:40:28.272Z,72.21
2018-11-12T14:42:57.405Z,74.27
2018-11-12T14:45:26.588Z,71.72
2018-11-12T14:47:55.613Z,72.38
2018-11-12T14:50:24.749Z,70.85
2018-11-12T14:52:54.278Z,71.20
2018-11-12T14:55:23.437Z,71.76
2018-11-12T14:57:52.557Z,72.19
2018-11-12T15:00:23.792Z,71.63
2018-11-12T15:02:53.422Z,72.28
2018-11-12T15:05:23.969Z,70.60
2018-11-12T15:07:53.037Z,70.77
2018-11-12T15:10:22.152Z,72.04
2018-11-12T15:12:51.468Z,70.25
2018-11-12T15:15:20.633Z,71.26
2018-11-12T15:17:49.731Z,72.76
2018-11-12T15:20:19.911Z,75.32
2018-11-12T15:22:50.278Z,74.76
2018-11-12T15:25:21.473Z,75.28
2018-11-12T15:27:50.760Z,76.24
2018-11-12T15:30:21.248Z,77.31
2018-11-12T15:32:51.437Z,77.95
2018-11-12T15:35:20.561Z,78.60
2018-11-12T15:37:49.988Z,79.85
2018-11-12T15:40:19.028Z,80.67
2018-11-12T15:42:48.132Z,83.07
2018-11-12T15:45:22.160Z,79.67
2018-11-12T15:47:51.481Z,79.97
2018-11-12T15:50:37.147Z,77.03
2018-11-12T15:53:06.223Z,79.97
2018-11-12T15:55:35.272Z,81.63
2018-11-12T15:58:04.463Z,82.15
2018-11-12T16:00:33.605Z,82.50
2018-11-12T16:03:02.654Z,81.04
2018-11-12T16:05:31.874Z,82.14
2018-11-12T16:08:00.898Z,80.42
2018-11-12T16:10:30.022Z,79.62
2018-11-12T16:12:59.219Z,78.66
2018-11-12T16:15:28.353Z,77.65
2018-11-12T16:17:57.420Z,77.69
2018-11-12T16:20:28.732Z,77.73
2018-11-12T16:22:58.755Z,79.15
2018-11-12T16:25:28.383Z,81.11
2018-11-12T16:27:58.001Z,85.63
2018-11-12T16:30:27.025Z,88.37
2018-11-12T16:32:56.049Z,92.37
2018-11-12T16:35:25.702Z,94.74
2018-11-12T16:37:55.745Z,82.95
2018-11-12T16:40:24.805Z,81.18
2018-11-12T16:42:53.898Z,83.01
2018-11-12T16:45:22.938Z,84.21
2018-11-12T16:47:52.043Z,85.85
2018-11-12T16:50:21.297Z,83.40
2018-11-12T16:52:51.286Z,85.18
2018-11-12T16:55:21.742Z,88.76
2018-11-12T16:57:51.623Z,89.33
2018-11-12T17:00:22.247Z,86.80
2018-11-12T17:02:51.482Z,83.26
2018-11-12T17:05:22.000Z,81.43
2018-11-12T17:07:51.376Z,79.36
2018-11-12T17:10:21.828Z,78.80
2018-11-12T17:12:51.156Z,76.82
2018-11-12T17:15:20.272Z,78.57
2018-11-12T17:17:49.572Z,72.92
2018-11-12T17:20:20.100Z,76.34
2018-11-12T17:22:49.214Z,76.19
2018-11-12T17:25:18.604Z,75.67
2018-11-12T17:27:48.166Z,76.44
2018-11-12T17:30:19.584Z,78.42
2018-11-12T17:32:49.368Z,75.80
2018-11-12T17:35:19.560Z,76.86
2018-11-12T17:37:48.619Z,77.09
2018-11-12T17:40:25.938Z,77.47
2018-11-12T17:42:55.893Z,78.54
2018-11-12T17:45:26.607Z,77.66
2018-11-12T17:47:56.493Z,76.79
2018-11-12T17:50:25.491Z,77.34
2018-11-12T17:52:54.596Z,79.55
2018-11-12T17:55:23.625Z,79.58
2018-11-12T17:57:52.752Z,79.39
2018-11-12T18:00:24.994Z,80.23
2018-11-12T18:02:54.079Z,81.70
2018-11-12T18:05:23.293Z,81.70
2018-11-12T18:07:52.555Z,81.75
2018-11-12T18:10:21.949Z,80.89
2018-11-12T18:12:51.013Z,81.79
2018-11-12T18:15:21.371Z,81.92
2018-11-12T18:17:56.138Z,79.75
2018-11-12T18:20:27.437Z,79.08
2018-11-12T18:22:57.048Z,81.49
2018-11-12T18:25:26.262Z,80.63
2018-11-12T18:27:56.009Z,82.17
2018-11-12T18:30:26.596Z,84.88
2018-11-12T18:32:56.828Z,84.68
2018-11-12T18:35:25.963Z,84.47
2018-11-12T18:37:55.148Z,84.48
2018-11-12T18:40:25.733Z,91.17
2018-11-12T18:42:54.947Z,92.82
2018-11-12T18:45:25.529Z,86.06
2018-11-12T18:47:55.063Z,85.76
2018-11-12T18:50:25.956Z,86.01
2018-11-12T18:52:59.331Z,85.95
2018-11-12T18:55:28.609Z,86.91
2018-11-12T18:57:58.458Z,89.03
2018-11-12T19:00:28.072Z,85.19
2018-11-12T19:02:57.379Z,88.94
2018-11-12T19:05:28.964Z,92.54
2018-11-12T19:08:00.377Z,91.72
2018-11-12T19:10:34.468Z,94.85
2018-11-12T19:13:03.682Z,93.03
2018-11-12T19:15:38.026Z,96.47
2018-11-12T19:18:10.823Z,92.97
2018-11-12T19:20:39.997Z,93.10
2018-11-12T19:23:09.101Z,95.61
2018-11-12T19:25:38.306Z,98.86
2018-11-12T19:28:07.536Z,100.00
2018-11-12T19:30:36.733Z,99.78
2018-11-12T19:33:06.305Z,96.98
2018-11-12T19:35:37.559Z,94.66
2018-11-12T19:38:07.090Z,89.71
2018-11-12T19:40:36.308Z,87.43
2018-11-12T19:43:07.494Z,91.25
2018-11-12T19:45:39.835Z,91.86
2018-11-12T19:48:12.533Z,91.27
2018-11-12T19:50:44.250Z,92.68
2018-11-12T19:53:13.625Z,92.19
2018-11-12T19:55:43.133Z,92.66
2018-11-12T19:58:12.287Z,91.98
2018-11-12T20:00:41.377Z,90.86
2018-11-12T20:03:10.500Z,97.50
2018-11-12T20:05:39.744Z,93.44
2018-11-12T20:08:09.063Z,95.21
2018-11-12T20:10:38.294Z,94.40
2018-11-12T20:13:07.490Z,94.34
2018-11-12T20:15:36.652Z,94.19
2018-11-12T20:18:05.907Z,93.26
2018-11-12T20:20:35.551Z,91.96
2018-11-12T20:23:04.684Z,90.16
2018-11-12T20:25:33.838Z,89.85
2018-11-12T20:28:03.110Z,89.67
2018-11-12T20:30:35.711Z,88.98
2018-11-12T20:33:05.282Z,90.32
2018-11-12T20:35:34.364Z,92.98
2018-11-12T20:38:03.568Z,91.37
2018-11-12T20:40:32.818Z,90.27
2018-11-12T20:43:02.070Z,90.44
2018-11-12T20:45:31.577Z,89.42
2018-11-12T20:48:00.753Z,90.91
2018-11-12T20:50:29.826Z,92.43
2018-11-12T20:52:58.993Z,92.37
2018-11-12T20:55:28.081Z,92.06
2018-11-12T20:57:58.174Z,90.46
2018-11-12T21:00:28.673Z,87.45
2018-11-12T21:03:00.486Z,89.06
2018-11-12T21:05:30.560Z,93.68
2018-11-12T21:07:59.765Z,93.99
2018-11-12T21:10:29.029Z,94.23
2018-11-12T21:12:58.270Z,96.74
2018-11-12T21:15:27.592Z,99.05
2018-11-12T21:17:56.801Z,100.00
2018-11-12T21:20:26.956Z,99.55
2018-11-12T21:22:56.366Z,99.22
2018-11-12T21:25:26.512Z,97.06
2018-11-12T21:27:55.946Z,96.94
2018-11-12T21:30:27.238Z,96.42
2018-11-12T21:32:56.300Z,97.12
2018-11-12T21:35:25.680Z,96.62
2018-11-12T21:37:55.712Z,95.92
2018-11-12T21:40:26.174Z,94.02
2018-11-12T21:42:55.270Z,91.49
2018-11-12T21:45:30.921Z,92.19
2018-11-12T21:48:00.209Z,94.66
2018-11-12T21:50:29.377Z,94.70
2018-11-12T21:52:58.761Z,91.92
2018-11-12T21:55:28.229Z,89.56
2018-11-12T21:57:58.133Z,90.99
2018-11-12T22:00:28.842Z,90.78
2018-11-12T22:03:00.076Z,93.79
2018-11-12T22:05:30.482Z,94.19
2018-11-12T22:08:00.241Z,95.03
2018-11-12T22:10:29.900Z,97.58
2018-11-12T22:12:59.495Z,97.89
2018-11-12T22:15:29.103Z,98.03
2018-11-12T22:17:59.456Z,97.35
2018-11-12T22:20:29.669Z,96.94
2018-11-12T22:22:58.999Z,99.62
2018-11-12T22:25:28.715Z,99.67
2018-11-12T22:28:00.976Z,100.00
2018-11-12T22:30:30.874Z,99.21
2018-11-12T22:33:00.925Z,100.00
2018-11-12T22:35:30.619Z,100.00
2018-11-12T22:38:00.253Z,99.23
2018-11-12T22:40:29.868Z,100.00
2018-11-12T22:42:59.524Z,99.11
2018-11-12T22:45:29.241Z,99.55
2018-11-12T22:47:58.853Z,99.13
2018-11-12T22:50:28.459Z,99.21
2018-11-12T22:52:58.325Z,99.53
2018-11-12T22:55:27.800Z,97.97
2018-11-12T22:57:57.397Z,99.71
2018-11-12T23:00:31.560Z,99.92
2018-11-12T23:03:01.330Z,100.00
2018-11-12T23:05:31.402Z,100.00
2018-11-12T23:08:01.598Z,100.00
2018-11-12T23:10:31.101Z,99.52
2018-11-12T23:13:00.867Z,100.00
2018-11-12T23:15:30.429Z,100.00
2018-11-12T23:18:00.330Z,100.00
2018-11-12T23:20:30.533Z,100.00
2018-11-12T23:23:00.344Z,100.00
2018-11-12T23:25:30.522Z,100.00
2018-11-12T23:28:00.278Z,100.00
2018-11-12T23:30:30.898Z,100.00
2018-11-12T23:33:00.487Z,100.00
2018-11-12T23:35:30.173Z,100.00
2018-11-12T23:38:00.260Z,100.00
2018-11-12T23:40:29.817Z,100.00
2018-11-12T23:42:59.345Z,100.00
2018-11-12T23:45:28.880Z,100.00
2018-11-12T23:47:58.521Z,100.00
2018-11-12T23:50:28.268Z,100.00
2018-11-12T23:52:57.992Z,100.00
2018-11-12T23:55:27.496Z,100.00
2018-11-12T23:57:57.296Z,100.00
